Time;durP1;ratioP1;P1;durP2;ratioP2;P2;SDS_P1;SDS_P2;PMS_P1;PMS_P2;Temp;Humidity;BMP_temperature;BMP_pressure;BME280_temperature;BME280_humidity;BME280_pressure;Samples;Min_cycle;Max_cycle;Signal;HPM_P1;HPM_P2
2021/12/12 00:00:13;;;;;;;5.40;3.20;;;;;;;;;;5034937;28;20225;-94
2021/12/12 00:02:56;;;;;;;3.17;2.30;;;;;;;;;;5034448;28;20191;-94
2021/12/12 00:05:27;;;;;;;7.70;3.30;;;;;;;;;;5034404;28;20670;-94
2021/12/12 00:07:54;;;;;;;6.53;3.07;;;;;;;;;;5034740;28;20202;-94
2021/12/12 00:10:25;;;;;;;6.03;2.73;;;;;;;;;;5034560;28;20276;-93
2021/12/12 00:12:57;;;;;;;4.03;3.10;;;;;;;;;;5034582;28;20202;-94
2021/12/12 00:15:26;;;;;;;7.67;2.77;;;;;;;;;;5034714;28;20230;-94
2021/12/12 00:17:54;;;;;;;6.13;2.93;;;;;;;;;;5034565;28;20586;-95
2021/12/12 00:20:23;;;;;;;9.53;3.20;;;;;;;;;;5034768;28;20285;-94
2021/12/12 00:22:52;;;;;;;7.80;2.87;;;;;;;;;;5036311;28;20233;-94
2021/12/12 00:25:20;;;;;;;6.90;2.63;;;;;;;;;;5036885;28;20195;-95
2021/12/12 00:27:48;;;;;;;7.20;2.87;;;;;;;;;;5037343;28;20203;-93
2021/12/12 00:30:17;;;;;;;8.77;3.40;;;;;;;;;;5037263;28;20226;-95
2021/12/12 00:32:44;;;;;;;7.37;2.93;;;;;;;;;;5039961;28;20214;-96
2021/12/12 00:35:14;;;;;;;5.57;2.50;;;;;;;;;;5037847;28;20253;-96
2021/12/12 00:37:43;;;;;;;3.80;2.13;;;;;;;;;;5037545;28;20195;-95
2021/12/12 00:40:17;;;;;;;5.67;2.40;;;;;;;;;;5039786;28;20266;-96
2021/12/12 00:42:44;;;;;;;2.43;2.07;;;;;;;;;;5042415;28;20741;-96
2021/12/12 00:45:13;;;;;;;5.77;2.70;;;;;;;;;;5037689;28;20305;-96
2021/12/12 00:47:45;;;;;;;4.30;2.27;;;;;;;;;;5038169;28;20226;-96
2021/12/12 00:50:20;;;;;;;4.57;2.60;;;;;;;;;;5035833;28;20202;-96
2021/12/12 00:52:49;;;;;;;4.20;2.10;;;;;;;;;;5035313;28;20652;-96
2021/12/12 00:55:17;;;;;;;5.43;2.47;;;;;;;;;;5035288;28;20286;-96
2021/12/12 00:57:49;;;;;;;4.63;2.00;;;;;;;;;;5034112;28;20260;-95
2021/12/12 01:00:18;;;;;;;2.23;1.90;;;;;;;;;;5034474;28;20206;-94
2021/12/12 01:02:47;;;;;;;4.27;2.43;;;;;;;;;;5033293;28;20269;-95
2021/12/12 01:05:16;;;;;;;3.70;2.30;;;;;;;;;;5033208;28;20219;-94
2021/12/12 01:07:45;;;;;;;2.90;1.70;;;;;;;;;;5033647;28;20301;-96
2021/12/12 01:10:18;;;;;;;3.90;2.30;;;;;;;;;;5033879;28;20733;-95
2021/12/12 01:12:46;;;;;;;3.07;2.27;;;;;;;;;;5033480;28;20226;-95
2021/12/12 01:15:17;;;;;;;2.20;2.00;;;;;;;;;;5033273;28;20286;-95
2021/12/12 01:17:49;;;;;;;2.70;1.30;;;;;;;;;;5034651;28;20195;-96
2021/12/12 01:20:21;;;;;;;2.43;1.50;;;;;;;;;;5033428;28;20213;-95
2021/12/12 01:22:50;;;;;;;1.40;1.20;;;;;;;;;;5033417;28;20212;-94
2021/12/12 01:25:20;;;;;;;1.77;1.17;;;;;;;;;;5032859;28;20721;-95
2021/12/12 01:27:48;;;;;;;2.67;1.70;;;;;;;;;;5033030;28;20289;-95
2021/12/12 01:30:17;;;;;;;5.30;2.30;;;;;;;;;;5033201;28;20203;-95
2021/12/12 01:32:47;;;;;;;2.03;1.70;;;;;;;;;;5033155;28;20290;-94
2021/12/12 01:35:17;;;;;;;1.50;1.07;;;;;;;;;;5033582;28;20206;-95
2021/12/12 01:38:50;;;;;;;2.33;1.53;;;;;;;;;;5033098;28;20252;-94
2021/12/12 01:40:35;;;;;;;2.00;1.30;;;;;;;;;;5032834;28;20261;-95
2021/12/12 01:43:06;;;;;;;1.30;1.10;;;;;;;;;;5032748;28;20317;-94
2021/12/12 01:45:36;;;;;;;2.97;1.50;;;;;;;;;;5033151;28;20226;-95
2021/12/12 01:48:08;;;;;;;2.60;1.47;;;;;;;;;;5032890;28;20286;-94
2021/12/12 01:50:39;;;;;;;1.40;1.07;;;;;;;;;;5033348;28;20537;-96
2021/12/12 01:53:10;;;;;;;1.50;1.03;;;;;;;;;;5032897;28;20186;-94
2021/12/12 01:55:41;;;;;;;1.77;1.40;;;;;;;;;;5033116;28;20199;-96
2021/12/12 01:58:13;;;;;;;1.00;1.00;;;;;;;;;;5032973;28;20209;-94
2021/12/12 02:00:43;;;;;;;1.20;0.83;;;;;;;;;;5033171;28;20256;-93
2021/12/12 02:03:15;;;;;;;0.50;0.50;;;;;;;;;;5032963;28;20604;-94
2021/12/12 02:05:42;;;;;;;1.60;1.00;;;;;;;;;;5032938;28;20198;-95
2021/12/12 02:08:13;;;;;;;0.50;0.40;;;;;;;;;;5032874;28;20645;-94
2021/12/12 02:10:44;;;;;;;1.90;0.90;;;;;;;;;;5032946;28;20647;-93
2021/12/12 02:13:15;;;;;;;1.23;0.80;;;;;;;;;;5033361;28;20252;-94
2021/12/12 02:15:45;;;;;;;0.97;0.80;;;;;;;;;;5036817;28;20221;-94
2021/12/12 02:18:16;;;;;;;0.70;0.70;;;;;;;;;;5036439;28;20194;-95
2021/12/12 02:20:57;;;;;;;1.10;0.90;;;;;;;;;;5036206;28;20290;-94
2021/12/12 02:23:35;;;;;;;1.03;0.60;;;;;;;;;;5036928;28;20193;-94
2021/12/12 02:37:09;;;;;;;0.70;0.70;;;;;;;;;;5036121;28;20717;-95
2021/12/12 02:39:39;;;;;;;1.13;0.60;;;;;;;;;;5036238;28;20704;-95
2021/12/12 02:42:09;;;;;;;1.27;0.73;;;;;;;;;;5035862;28;20234;-95
2021/12/12 02:44:38;;;;;;;0.80;0.80;;;;;;;;;;5035874;28;20222;-95
2021/12/12 02:47:11;;;;;;;0.60;0.60;;;;;;;;;;5035902;28;20195;-95
2021/12/12 02:49:53;;;;;;;1.10;0.70;;;;;;;;;;5036100;28;20199;-95
2021/12/12 02:52:24;;;;;;;1.07;0.93;;;;;;;;;;5036027;28;20218;-95
2021/12/12 02:54:54;;;;;;;3.80;3.40;;;;;;;;;;5036358;28;20264;-96
2021/12/12 02:57:21;;;;;;;2.40;2.20;;;;;;;;;;5035692;28;20630;-95
2021/12/12 02:59:51;;;;;;;2.47;2.00;;;;;;;;;;5035674;28;20309;-96
2021/12/12 03:02:23;;;;;;;4.40;3.27;;;;;;;;;;5035869;28;20673;-95
2021/12/12 03:04:50;;;;;;;3.73;3.07;;;;;;;;;;5035450;28;20210;-95
2021/12/12 03:07:18;;;;;;;2.20;1.27;;;;;;;;;;5035640;28;20206;-96
2021/12/12 03:09:48;;;;;;;1.40;1.30;;;;;;;;;;5035443;28;20237;-95
2021/12/12 03:12:19;;;;;;;1.37;1.27;;;;;;;;;;5036120;28;20199;-95
2021/12/12 03:14:48;;;;;;;3.40;1.07;;;;;;;;;;5035825;28;20553;-96
2021/12/12 03:17:18;;;;;;;1.37;1.27;;;;;;;;;;5035539;28;20206;-96
2021/12/12 03:19:46;;;;;;;2.10;1.10;;;;;;;;;;5036336;28;20345;-96
2021/12/12 03:22:16;;;;;;;1.20;0.73;;;;;;;;;;5035413;28;20198;-95
2021/12/12 03:24:44;;;;;;;1.30;1.20;;;;;;;;;;5034769;28;20223;-96
2021/12/12 03:27:12;;;;;;;2.50;0.70;;;;;;;;;;5035569;28;20654;-95
2021/12/12 03:29:45;;;;;;;1.43;1.20;;;;;;;;;;5035308;28;20225;-95
2021/12/12 03:32:17;;;;;;;1.80;1.07;;;;;;;;;;5035405;28;20634;-96
2021/12/12 03:34:49;;;;;;;1.10;1.00;;;;;;;;;;5035206;28;20206;-95
2021/12/12 03:37:19;;;;;;;1.47;1.10;;;;;;;;;;5035232;28;20273;-96
2021/12/12 03:39:51;;;;;;;0.93;0.80;;;;;;;;;;5035159;28;20198;-96
2021/12/12 03:42:22;;;;;;;2.80;0.90;;;;;;;;;;5035041;28;20226;-95
2021/12/12 03:44:52;;;;;;;2.50;1.40;;;;;;;;;;5034860;28;20230;-94
2021/12/12 03:47:23;;;;;;;1.53;1.43;;;;;;;;;;5035275;28;20271;-95
2021/12/12 03:49:50;;;;;;;2.23;1.40;;;;;;;;;;5035104;28;20190;-95
2021/12/12 03:52:19;;;;;;;0.87;0.87;;;;;;;;;;5034936;28;20222;-96
2021/12/12 03:54:48;;;;;;;1.83;0.70;;;;;;;;;;5034835;28;20198;-96
2021/12/12 03:57:17;;;;;;;0.73;0.73;;;;;;;;;;5034862;28;20209;-96
2021/12/12 03:59:44;;;;;;;1.53;0.87;;;;;;;;;;5035039;28;20647;-96
2021/12/12 04:02:13;;;;;;;1.47;0.70;;;;;;;;;;5034743;28;20199;-96
2021/12/12 04:04:42;;;;;;;0.80;0.80;;;;;;;;;;5034491;28;20227;-96
2021/12/12 04:07:12;;;;;;;1.40;1.00;;;;;;;;;;5034581;28;20206;-95
2021/12/12 04:09:39;;;;;;;0.70;0.70;;;;;;;;;;5034480;28;20261;-96
2021/12/12 04:12:09;;;;;;;1.17;0.90;;;;;;;;;;5034614;28;20205;-95
2021/12/12 04:14:37;;;;;;;4.13;2.63;;;;;;;;;;5034830;28;20199;-96
2021/12/12 04:17:07;;;;;;;4.23;2.73;;;;;;;;;;5034230;28;20260;-95
2021/12/12 04:19:36;;;;;;;2.70;1.93;;;;;;;;;;5034252;28;20238;-95
2021/12/12 04:22:05;;;;;;;3.23;1.50;;;;;;;;;;5034234;28;20199;-96
2021/12/12 04:24:34;;;;;;;4.97;3.90;;;;;;;;;;5034006;28;20222;-96
2021/12/12 04:27:01;;;;;;;5.80;5.30;;;;;;;;;;5034792;28;20641;-95
2021/12/12 04:29:32;;;;;;;2.70;2.50;;;;;;;;;;5034255;28;20222;-96
2021/12/12 04:32:02;;;;;;;3.67;3.07;;;;;;;;;;5034137;28;20213;-96
2021/12/12 04:34:33;;;;;;;5.90;5.30;;;;;;;;;;5034103;28;20207;-96
2021/12/12 04:37:03;;;;;;;8.13;6.67;;;;;;;;;;5033390;28;20202;-96
2021/12/12 04:39:34;;;;;;;7.00;6.40;;;;;;;;;;5034450;28;20230;-96
2021/12/12 04:42:05;;;;;;;8.70;7.97;;;;;;;;;;5034050;28;20234;-96
2021/12/12 04:44:37;;;;;;;12.50;11.20;;;;;;;;;;5033953;28;20225;-96
2021/12/12 04:49:56;;;;;;;19.17;13.37;;;;;;;;;;5001243;28;20202;-96
2021/12/12 04:52:30;;;;;;;4.77;4.10;;;;;;;;;;5033751;28;20236;-95
2021/12/12 04:55:04;;;;;;;17.80;12.30;;;;;;;;;;5033676;28;20207;-96
2021/12/12 04:57:34;;;;;;;10.07;8.27;;;;;;;;;;5033690;28;20667;-95
2021/12/12 05:00:07;;;;;;;17.40;11.60;;;;;;;;;;5033591;28;20194;-95
2021/12/12 05:02:43;;;;;;;10.33;7.80;;;;;;;;;;5033811;28;20198;-96
2021/12/12 05:05:14;;;;;;;10.83;8.23;;;;;;;;;;5033630;28;20218;-95
2021/12/12 05:07:47;;;;;;;12.07;8.27;;;;;;;;;;5034082;28;20226;-95
2021/12/12 05:10:21;;;;;;;6.30;3.50;;;;;;;;;;5033427;28;20198;-95
2021/12/12 05:12:53;;;;;;;3.40;3.10;;;;;;;;;;5033459;28;20208;-96
2021/12/12 05:15:23;;;;;;;3.37;3.07;;;;;;;;;;5033396;28;20257;-96
2021/12/12 05:17:57;;;;;;;7.53;5.67;;;;;;;;;;5033312;28;20268;-96
2021/12/12 05:20:28;;;;;;;16.80;12.40;;;;;;;;;;5033446;28;20195;-95
2021/12/12 05:22:58;;;;;;;4.87;4.13;;;;;;;;;;5033341;28;20199;-95
2021/12/12 05:25:27;;;;;;;6.80;3.03;;;;;;;;;;5033494;28;20691;-96
2021/12/12 05:27:56;;;;;;;3.27;2.00;;;;;;;;;;5033241;28;20214;-95
2021/12/12 05:30:26;;;;;;;4.23;3.17;;;;;;;;;;5033464;28;20215;-95
2021/12/12 05:32:55;;;;;;;15.80;11.10;;;;;;;;;;5033326;28;20248;-96
2021/12/12 05:35:25;;;;;;;24.97;18.27;;;;;;;;;;5033110;28;20637;-96
2021/12/12 05:37:56;;;;;;;17.63;14.50;;;;;;;;;;5033147;28;20222;-94
2021/12/12 05:40:26;;;;;;;29.40;19.40;;;;;;;;;;5033060;28;20191;-94
2021/12/12 05:42:54;;;;;;;30.37;21.40;;;;;;;;;;5032669;28;20253;-95
2021/12/12 05:45:22;;;;;;;46.37;35.43;;;;;;;;;;5050547;28;20229;-95
2021/12/12 05:47:50;;;;;;;9.83;7.77;;;;;;;;;;5055211;28;20280;-94
2021/12/12 05:50:18;;;;;;;12.50;11.20;;;;;;;;;;5059382;28;20197;-96
2021/12/12 05:52:46;;;;;;;3.30;3.00;;;;;;;;;;5059235;28;20199;-96
2021/12/12 05:55:16;;;;;;;3.97;2.70;;;;;;;;;;5059279;28;20271;-95
2021/12/12 05:57:53;;;;;;;7.03;6.30;;;;;;;;;;5059472;28;20193;-94
2021/12/12 06:00:24;;;;;;;10.27;9.07;;;;;;;;;;5058519;28;20638;-94
2021/12/12 06:02:51;;;;;;;4.97;4.47;;;;;;;;;;5059232;28;20277;-95
2021/12/12 06:05:19;;;;;;;3.23;2.90;;;;;;;;;;5059221;28;20244;-95
2021/12/12 06:07:46;;;;;;;2.07;1.87;;;;;;;;;;5059009;28;20666;-96
2021/12/12 06:10:18;;;;;;;1.87;1.63;;;;;;;;;;5059055;28;20201;-96
2021/12/12 06:12:46;;;;;;;2.93;1.90;;;;;;;;;;5059171;28;20247;-95
2021/12/12 06:15:16;;;;;;;3.63;2.07;;;;;;;;;;5059095;28;20201;-95
2021/12/12 06:17:45;;;;;;;12.30;11.10;;;;;;;;;;5059034;28;20201;-95
2021/12/12 06:20:13;;;;;;;18.30;16.40;;;;;;;;;;5059056;28;20198;-96
2021/12/12 06:22:41;;;;;;;9.40;8.33;;;;;;;;;;5059244;28;20635;-96
2021/12/12 06:25:10;;;;;;;3.50;3.20;;;;;;;;;;5059115;28;20217;-96
2021/12/12 06:27:39;;;;;;;5.33;4.10;;;;;;;;;;5059208;28;20279;-96
2021/12/12 06:30:11;;;;;;;5.57;5.07;;;;;;;;;;5059014;28;20217;-96
2021/12/12 06:32:38;;;;;;;22.63;19.03;;;;;;;;;;5060018;28;20197;-96
2021/12/12 06:35:09;;;;;;;16.77;14.87;;;;;;;;;;5058879;28;20213;-96
2021/12/12 06:37:37;;;;;;;7.13;6.43;;;;;;;;;;5059041;28;20614;-96
2021/12/12 06:40:07;;;;;;;4.63;3.57;;;;;;;;;;5059123;28;20259;-95
2021/12/12 06:42:35;;;;;;;4.17;3.77;;;;;;;;;;5058888;28;20233;-96
2021/12/12 06:45:06;;;;;;;7.77;5.07;;;;;;;;;;5058541;28;20226;-95
2021/12/12 06:47:34;;;;;;;4.23;3.90;;;;;;;;;;5058913;28;20624;-95
2021/12/12 06:50:02;;;;;;;5.23;4.53;;;;;;;;;;5059056;28;20251;-95
2021/12/12 06:52:29;;;;;;;8.07;5.90;;;;;;;;;;5058691;28;20697;-94
2021/12/12 06:54:57;;;;;;;8.37;5.57;;;;;;;;;;5059027;28;20213;-94
2021/12/12 06:57:25;;;;;;;3.00;2.63;;;;;;;;;;5058696;28;20198;-94
2021/12/12 06:59:53;;;;;;;2.73;1.83;;;;;;;;;;5055976;28;20285;-94
2021/12/12 07:02:23;;;;;;;5.53;4.97;;;;;;;;;;5056233;28;20194;-94
2021/12/12 07:04:51;;;;;;;11.33;7.63;;;;;;;;;;5055563;28;20658;-94
2021/12/12 07:07:19;;;;;;;2.03;1.73;;;;;;;;;;5055389;28;20214;-94
2021/12/12 07:09:48;;;;;;;4.87;3.83;;;;;;;;;;5050451;28;20194;-95
2021/12/12 07:12:21;;;;;;;8.33;2.00;;;;;;;;;;5041112;28;20194;-94
2021/12/12 07:14:49;;;;;;;3.10;2.10;;;;;;;;;;5055420;28;20189;-94
2021/12/12 07:17:17;;;;;;;5.93;2.90;;;;;;;;;;5055317;28;20712;-94
2021/12/12 07:19:46;;;;;;;3.40;2.03;;;;;;;;;;5055416;28;20284;-95
2021/12/12 07:22:15;;;;;;;3.03;2.80;;;;;;;;;;5055128;28;20193;-94
2021/12/12 07:24:43;;;;;;;2.53;1.60;;;;;;;;;;5055143;28;20194;-94
2021/12/12 07:27:11;;;;;;;3.97;1.90;;;;;;;;;;5054956;28;20225;-95
2021/12/12 07:29:38;;;;;;;7.03;5.83;;;;;;;;;;5055120;28;20186;-95
2021/12/12 07:32:06;;;;;;;5.93;5.37;;;;;;;;;;5055007;28;20193;-94
2021/12/12 07:34:35;;;;;;;25.00;22.53;;;;;;;;;;5055411;28;20688;-94
2021/12/12 07:37:07;;;;;;;36.80;33.80;;;;;;;;;;5055084;28;20201;-95
2021/12/12 07:39:35;;;;;;;4.00;3.47;;;;;;;;;;5055131;28;20200;-95
2021/12/12 07:42:05;;;;;;;6.33;4.03;;;;;;;;;;5054874;28;20221;-94
2021/12/12 07:44:35;;;;;;;3.90;2.47;;;;;;;;;;5055336;28;20197;-94
2021/12/12 07:47:05;;;;;;;4.70;1.57;;;;;;;;;;5055767;28;20317;-93
2021/12/12 07:49:35;;;;;;;4.20;2.03;;;;;;;;;;5055552;28;20210;-92
2021/12/12 07:52:06;;;;;;;3.07;2.77;;;;;;;;;;5055290;28;20216;-94
2021/12/12 07:54:34;;;;;;;6.57;4.10;;;;;;;;;;5054766;28;20201;-96
2021/12/12 07:57:02;;;;;;;8.83;6.90;;;;;;;;;;5054766;28;20194;-95
2021/12/12 07:59:30;;;;;;;10.37;6.67;;;;;;;;;;5055318;28;20194;-94
2021/12/12 08:01:57;;;;;;;11.67;7.60;;;;;;;;;;5055409;28;20217;-94
2021/12/12 08:04:28;;;;;;;6.23;3.83;;;;;;;;;;5054979;28;20579;-91
2021/12/12 08:06:55;;;;;;;12.70;9.23;;;;;;;;;;5054962;28;20224;-96
2021/12/12 08:09:27;;;;;;;5.57;4.47;;;;;;;;;;5046477;28;20281;-94
2021/12/12 08:11:54;;;;;;;6.20;5.10;;;;;;;;;;5035347;28;20214;-91
2021/12/12 08:14:26;;;;;;;5.63;3.60;;;;;;;;;;5034819;28;20659;-95
2021/12/12 08:16:54;;;;;;;4.60;3.73;;;;;;;;;;5038502;28;20210;-94
2021/12/12 08:19:23;;;;;;;2.60;2.00;;;;;;;;;;5035955;28;20203;-91
2021/12/12 08:21:52;;;;;;;4.60;2.47;;;;;;;;;;5036998;28;20225;-96
2021/12/12 08:24:19;;;;;;;6.00;3.67;;;;;;;;;;5034425;28;20218;-93
2021/12/12 08:26:49;;;;;;;6.83;3.37;;;;;;;;;;5036151;28;20226;-96
2021/12/12 08:29:17;;;;;;;3.27;2.60;;;;;;;;;;5041844;28;20199;-96
2021/12/12 08:31:46;;;;;;;5.37;2.90;;;;;;;;;;5050398;28;20212;-91
2021/12/12 08:34:15;;;;;;;5.13;2.00;;;;;;;;;;5034383;28;20638;-96
2021/12/12 08:36:46;;;;;;;5.40;4.50;;;;;;;;;;5035149;28;20680;-92
2021/12/12 08:39:14;;;;;;;4.33;2.80;;;;;;;;;;5033916;28;20289;-93
2021/12/12 08:41:43;;;;;;;3.87;1.90;;;;;;;;;;5033852;28;20191;-92
2021/12/12 08:44:12;;;;;;;3.60;2.97;;;;;;;;;;5034256;28;20187;-94
2021/12/12 08:46:44;;;;;;;3.87;2.03;;;;;;;;;;5033571;28;20222;-94
2021/12/12 08:49:12;;;;;;;2.80;2.33;;;;;;;;;;5033724;28;20217;-93
2021/12/12 08:51:43;;;;;;;3.47;1.50;;;;;;;;;;5033638;28;20206;-93
2021/12/12 08:54:15;;;;;;;4.50;1.60;;;;;;;;;;5033542;28;20260;-93
2021/12/12 08:56:45;;;;;;;5.60;3.77;;;;;;;;;;5061962;28;20240;-92
2021/12/12 08:59:18;;;;;;;5.77;4.60;;;;;;;;;;5053444;28;20209;-94
2021/12/12 09:01:46;;;;;;;5.57;2.30;;;;;;;;;;5053382;28;20198;-93
2021/12/12 09:04:14;;;;;;;3.77;2.23;;;;;;;;;;5052925;28;20208;-93
2021/12/12 09:06:45;;;;;;;4.57;2.27;;;;;;;;;;5053043;28;20225;-94
2021/12/12 09:09:17;;;;;;;4.93;3.07;;;;;;;;;;5053427;28;20640;-94
2021/12/12 09:11:49;;;;;;;7.03;2.97;;;;;;;;;;5053286;28;20208;-93
2021/12/12 09:14:22;;;;;;;4.27;2.63;;;;;;;;;;5053407;28;20285;-93
2021/12/12 09:16:54;;;;;;;4.30;2.63;;;;;;;;;;5053117;28;20197;-92
2021/12/12 09:19:25;;;;;;;5.07;2.77;;;;;;;;;;5060792;28;20221;-96
2021/12/12 09:21:58;;;;;;;10.03;6.97;;;;;;;;;;5064861;28;20248;-96
2021/12/12 09:24:43;;;;;;;10.07;6.23;;;;;;;;;;5062684;28;20197;-96
2021/12/12 09:27:13;;;;;;;11.07;6.80;;;;;;;;;;5065926;28;20213;-96
2021/12/12 09:29:48;;;;;;;9.37;3.83;;;;;;;;;;5067284;28;20256;-96
2021/12/12 09:32:26;;;;;;;7.27;5.30;;;;;;;;;;5068717;28;20201;-96
2021/12/12 09:35:03;;;;;;;11.83;8.87;;;;;;;;;;5070863;28;20197;-96
2021/12/12 09:37:39;;;;;;;16.80;10.80;;;;;;;;;;5071825;28;20186;-96
2021/12/12 09:40:15;;;;;;;24.63;15.53;;;;;;;;;;5070684;28;20216;-96
2021/12/12 09:42:55;;;;;;;18.50;11.37;;;;;;;;;;5070273;28;20235;-96
2021/12/12 09:45:42;;;;;;;20.17;11.07;;;;;;;;;;5068956;28;20224;-96
2021/12/12 09:51:24;;;;;;;17.03;10.63;;;;;;;;;;5026893;28;20194;-96
2021/12/12 09:54:15;;;;;;;21.93;11.30;;;;;;;;;;5061594;28;20205;-96
2021/12/12 09:56:49;;;;;;;9.77;6.43;;;;;;;;;;5051066;28;20202;-95
2021/12/12 09:59:27;;;;;;;10.83;8.13;;;;;;;;;;5055355;28;20198;-95
2021/12/12 10:02:06;;;;;;;21.40;13.67;;;;;;;;;;5057184;28;20251;-93
2021/12/12 10:04:43;;;;;;;7.10;4.13;;;;;;;;;;5058615;28;20198;-96
2021/12/12 10:07:17;;;;;;;7.40;5.57;;;;;;;;;;5057151;28;20651;-96
2021/12/12 10:09:49;;;;;;;12.47;7.20;;;;;;;;;;5054295;28;20284;-96
2021/12/12 10:12:19;;;;;;;9.00;5.10;;;;;;;;;;5057563;28;20201;-96
2021/12/12 10:14:52;;;;;;;7.40;4.57;;;;;;;;;;5063340;28;20202;-96
2021/12/12 10:17:28;;;;;;;6.03;2.63;;;;;;;;;;5060930;28;20197;-96
2021/12/12 10:20:00;;;;;;;10.53;7.73;;;;;;;;;;5061392;28;20201;-96
2021/12/12 10:22:36;;;;;;;5.30;4.80;;;;;;;;;;5051553;28;20263;-96
2021/12/12 10:25:08;;;;;;;13.70;10.53;;;;;;;;;;5063001;28;20201;-96
2021/12/12 10:27:43;;;;;;;13.47;9.57;;;;;;;;;;5064655;28;20221;-96
2021/12/12 10:30:15;;;;;;;11.17;7.33;;;;;;;;;;5062916;28;20224;-96
2021/12/12 10:32:52;;;;;;;6.93;4.53;;;;;;;;;;5064769;28;20217;-96
2021/12/12 10:35:24;;;;;;;7.43;5.50;;;;;;;;;;5065703;28;20202;-96
2021/12/12 10:37:55;;;;;;;16.97;10.50;;;;;;;;;;5066457;28;20227;-96
2021/12/12 10:40:29;;;;;;;8.97;5.37;;;;;;;;;;5061762;28;20221;-95
2021/12/12 10:43:01;;;;;;;5.50;3.50;;;;;;;;;;5058137;28;20287;-95
2021/12/12 10:45:33;;;;;;;5.20;3.73;;;;;;;;;;5061370;28;20285;-96
2021/12/12 10:48:06;;;;;;;9.47;7.57;;;;;;;;;;5058427;28;20249;-96
2021/12/12 10:50:41;;;;;;;8.97;6.97;;;;;;;;;;5060573;28;20201;-96
2021/12/12 10:53:12;;;;;;;7.97;5.33;;;;;;;;;;5059909;28;20198;-95
2021/12/12 10:55:45;;;;;;;5.30;4.43;;;;;;;;;;5060585;28;20202;-96
2021/12/12 10:58:18;;;;;;;4.13;3.73;;;;;;;;;;5058509;28;20650;-96
2021/12/12 11:00:50;;;;;;;10.00;8.90;;;;;;;;;;5057908;28;20197;-96
2021/12/12 11:03:22;;;;;;;7.03;4.40;;;;;;;;;;5060360;28;20190;-96
2021/12/12 11:05:55;;;;;;;10.87;3.90;;;;;;;;;;5061312;28;20285;-96
2021/12/12 11:08:26;;;;;;;4.27;2.77;;;;;;;;;;5060573;28;20226;-95
2021/12/12 11:10:55;;;;;;;6.53;2.23;;;;;;;;;;5061178;28;20281;-96
2021/12/12 11:13:28;;;;;;;5.53;3.77;;;;;;;;;;5061776;28;20202;-96
2021/12/12 11:15:59;;;;;;;5.67;4.40;;;;;;;;;;5060856;28;20256;-96
2021/12/12 11:18:32;;;;;;;5.87;3.63;;;;;;;;;;5058151;28;20202;-96
2021/12/12 11:21:05;;;;;;;7.33;3.43;;;;;;;;;;5060248;28;20723;-96
2021/12/12 11:23:35;;;;;;;3.87;3.40;;;;;;;;;;5061903;28;20201;-96
2021/12/12 11:26:05;;;;;;;3.53;3.03;;;;;;;;;;5061517;28;20228;-96
2021/12/12 11:28:37;;;;;;;7.20;3.73;;;;;;;;;;5059137;28;20229;-96
2021/12/12 11:31:07;;;;;;;4.57;2.97;;;;;;;;;;5059053;28;20194;-96
2021/12/12 11:33:37;;;;;;;4.80;3.43;;;;;;;;;;5039701;28;20260;-96
2021/12/12 11:36:08;;;;;;;4.90;4.07;;;;;;;;;;5038538;28;20194;-96
2021/12/12 11:38:41;;;;;;;7.40;3.10;;;;;;;;;;5040388;28;20191;-96
2021/12/12 11:41:13;;;;;;;5.27;4.13;;;;;;;;;;5040846;28;20206;-96
2021/12/12 11:43:44;;;;;;;5.33;4.60;;;;;;;;;;5058464;28;20297;-96
2021/12/12 11:46:15;;;;;;;5.13;4.37;;;;;;;;;;5058671;28;20206;-95
2021/12/12 11:48:53;;;;;;;4.00;2.70;;;;;;;;;;5059228;28;20209;-96
2021/12/12 11:51:29;;;;;;;8.17;6.80;;;;;;;;;;5058742;28;20202;-96
2021/12/12 11:54:03;;;;;;;5.83;4.47;;;;;;;;;;5060529;28;20552;-96
2021/12/12 11:56:34;;;;;;;11.80;9.07;;;;;;;;;;5061112;28;20201;-96
2021/12/12 11:59:14;;;;;;;21.43;16.53;;;;;;;;;;5059803;28;20654;-96
2021/12/12 12:01:51;;;;;;;9.80;8.80;;;;;;;;;;5060962;28;20252;-96
2021/12/12 12:04:46;;;;;;;4.90;4.50;;;;;;;;;;5059003;28;20658;-96
2021/12/12 12:07:19;;;;;;;13.07;8.93;;;;;;;;;;5055626;28;20222;-95
2021/12/12 12:09:54;;;;;;;12.83;11.53;;;;;;;;;;5056976;28;20205;-96
2021/12/12 12:12:37;;;;;;;14.40;7.67;;;;;;;;;;5055865;28;20209;-95
2021/12/12 12:15:14;;;;;;;5.27;3.70;;;;;;;;;;5057263;28;20655;-96
2021/12/12 12:17:59;;;;;;;18.33;13.67;;;;;;;;;;5057178;28;20251;-96
2021/12/12 12:20:37;;;;;;;11.70;10.33;;;;;;;;;;5056501;28;20206;-95
2021/12/12 12:23:17;;;;;;;7.57;4.93;;;;;;;;;;5056432;28;20190;-95
2021/12/12 12:28:43;;;;;;;10.53;6.57;;;;;;;;;;5054592;28;20297;-96
2021/12/12 12:31:43;;;;;;;8.47;6.33;;;;;;;;;;5055224;28;20197;-96
2021/12/12 12:35:06;;;;;;;7.17;4.77;;;;;;;;;;5054390;28;20638;-95
2021/12/12 12:38:10;;;;;;;13.53;8.03;;;;;;;;;;5053996;28;20205;-96
2021/12/12 12:41:16;;;;;;;5.17;3.97;;;;;;;;;;5047829;28;20284;-94
2021/12/12 12:44:20;;;;;;;8.37;6.20;;;;;;;;;;5048505;28;20229;-95
2021/12/12 12:47:32;;;;;;;42.50;36.67;;;;;;;;;;5056950;28;20201;-95
2021/12/12 12:50:38;;;;;;;4.30;3.27;;;;;;;;;;5058942;28;20201;-95
2021/12/12 12:53:40;;;;;;;5.37;3.10;;;;;;;;;;5071039;28;20219;-96
2021/12/12 12:56:15;;;;;;;4.77;4.37;;;;;;;;;;5099381;28;20223;-95
2021/12/12 12:59:06;;;;;;;16.73;15.07;;;;;;;;;;5095080;28;20282;-96
2021/12/12 13:01:41;;;;;;;5.93;3.27;;;;;;;;;;5093667;28;20270;-95
2021/12/12 13:04:17;;;;;;;9.67;5.60;;;;;;;;;;5093411;28;20245;-95
2021/12/12 13:06:58;;;;;;;8.03;6.73;;;;;;;;;;5053963;28;20206;-96
2021/12/12 13:09:41;;;;;;;5.20;2.67;;;;;;;;;;5053261;28;20209;-96
2021/12/12 13:12:21;;;;;;;5.97;2.10;;;;;;;;;;5053353;28;20280;-96
2021/12/12 13:14:52;;;;;;;5.37;4.00;;;;;;;;;;5066322;28;20204;-95
2021/12/12 13:17:29;;;;;;;8.17;6.93;;;;;;;;;;5072632;28;20197;-95
2021/12/12 13:20:09;;;;;;;10.40;9.10;;;;;;;;;;5072814;28;20227;-95
2021/12/12 13:22:43;;;;;;;6.43;4.90;;;;;;;;;;5073217;28;20288;-95
2021/12/12 13:25:18;;;;;;;3.90;3.50;;;;;;;;;;5072522;28;20657;-95
2021/12/12 13:28:04;;;;;;;5.97;3.87;;;;;;;;;;5072883;28;20224;-94
2021/12/12 13:30:42;;;;;;;4.53;3.93;;;;;;;;;;5073025;28;20283;-96
2021/12/12 13:33:19;;;;;;;5.00;2.53;;;;;;;;;;5072713;28;20197;-93
2021/12/12 13:36:11;;;;;;;2.43;1.50;;;;;;;;;;5073001;28;20177;-95
2021/12/12 13:38:54;;;;;;;5.50;4.37;;;;;;;;;;5072505;28;20239;-96
2021/12/12 13:41:29;;;;;;;3.67;2.80;;;;;;;;;;5072843;28;20215;-96
2021/12/12 13:44:07;;;;;;;4.80;3.00;;;;;;;;;;5072492;28;20612;-96
2021/12/12 13:46:42;;;;;;;4.77;2.23;;;;;;;;;;5072676;28;20287;-95
2021/12/12 13:49:17;;;;;;;7.10;4.67;;;;;;;;;;5072506;28;20223;-95
2021/12/12 13:51:48;;;;;;;5.23;2.93;;;;;;;;;;5072612;28;20206;-95
2021/12/12 13:54:24;;;;;;;4.60;1.90;;;;;;;;;;5072923;28;20280;-96
2021/12/12 13:57:08;;;;;;;4.70;1.97;;;;;;;;;;5073821;28;20673;-96
2021/12/12 13:59:46;;;;;;;3.67;2.10;;;;;;;;;;5072552;28;20190;-96
2021/12/12 14:02:16;;;;;;;3.93;2.40;;;;;;;;;;5072768;28;20254;-96
2021/12/12 14:04:54;;;;;;;4.50;2.27;;;;;;;;;;5072709;28;20201;-96
2021/12/12 14:07:26;;;;;;;2.67;2.30;;;;;;;;;;5073822;28;20251;-96
2021/12/12 14:09:55;;;;;;;3.27;2.27;;;;;;;;;;5076140;28;20254;-96
2021/12/12 14:12:27;;;;;;;2.40;2.20;;;;;;;;;;5076352;28;20200;-96
2021/12/12 14:15:00;;;;;;;3.77;2.57;;;;;;;;;;5073885;28;20197;-95
2021/12/12 14:17:31;;;;;;;4.33;3.77;;;;;;;;;;5076384;28;20200;-96
2021/12/12 14:20:02;;;;;;;6.67;5.23;;;;;;;;;;5077213;28;20649;-96
2021/12/12 14:22:30;;;;;;;4.43;3.63;;;;;;;;;;5083132;28;20204;-96
2021/12/12 14:24:58;;;;;;;5.23;3.87;;;;;;;;;;5083018;28;20226;-96
2021/12/12 14:27:28;;;;;;;4.63;3.07;;;;;;;;;;5082360;28;20271;-96
2021/12/12 14:29:56;;;;;;;6.53;3.93;;;;;;;;;;5087568;28;20566;-96
2021/12/12 14:32:28;;;;;;;5.00;3.93;;;;;;;;;;5092104;28;20193;-96
2021/12/12 14:35:02;;;;;;;3.13;2.33;;;;;;;;;;5093007;28;20205;-96
2021/12/12 14:37:33;;;;;;;5.40;2.90;;;;;;;;;;5089375;28;20247;-96
2021/12/12 14:40:07;;;;;;;2.93;2.43;;;;;;;;;;5078830;28;20220;-96
2021/12/12 14:42:38;;;;;;;3.63;3.07;;;;;;;;;;5077026;28;20315;-96
2021/12/12 14:45:09;;;;;;;2.80;2.53;;;;;;;;;;5079766;28;20215;-95
2021/12/12 14:47:40;;;;;;;5.47;4.97;;;;;;;;;;5076439;28;20225;-95
2021/12/12 14:50:12;;;;;;;8.27;6.40;;;;;;;;;;5076296;28;20283;-95
2021/12/12 14:52:41;;;;;;;7.23;5.60;;;;;;;;;;5075965;28;20258;-94
2021/12/12 14:55:16;;;;;;;7.83;6.10;;;;;;;;;;5077305;28;20197;-94
2021/12/12 14:57:47;;;;;;;3.70;2.80;;;;;;;;;;5077182;28;20189;-95
2021/12/12 15:00:18;;;;;;;9.87;5.60;;;;;;;;;;5076816;28;20596;-94
2021/12/12 15:02:51;;;;;;;9.33;6.47;;;;;;;;;;5076143;28;20201;-95
2021/12/12 15:05:21;;;;;;;8.10;6.57;;;;;;;;;;5076405;28;20207;-96
2021/12/12 15:07:52;;;;;;;12.87;10.27;;;;;;;;;;5075576;28;20221;-96
2021/12/12 15:10:22;;;;;;;30.83;24.73;;;;;;;;;;5075412;28;20201;-96
2021/12/12 15:12:53;;;;;;;30.20;25.83;;;;;;;;;;5075630;28;20638;-96
2021/12/12 15:15:23;;;;;;;11.07;9.33;;;;;;;;;;5075381;28;20229;-96
2021/12/12 15:17:53;;;;;;;10.73;9.37;;;;;;;;;;5075562;28;20193;-96
2021/12/12 15:20:26;;;;;;;13.80;11.73;;;;;;;;;;5074707;28;20193;-96
2021/12/12 15:22:56;;;;;;;13.57;12.27;;;;;;;;;;5075434;28;20227;-96
2021/12/12 15:25:27;;;;;;;16.50;14.40;;;;;;;;;;5075480;28;20201;-96
2021/12/12 15:28:02;;;;;;;12.50;11.03;;;;;;;;;;5075548;28;20759;-96